Time;durP1;ratioP1;P1;durP2;ratioP2;P2;SDS_P1;SDS_P2;PMS_P1;PMS_P2;Temp;Humidity;BMP_temperature;BMP_pressure;BME280_temperature;BME280_humidity;BME280_pressure;Samples;Min_cycle;Max_cycle;Signal;HPM_P1;HPM_P2
2022/01/29 00:00:24;;;;;;;47.90;24.83;;;7.50;99.90;;;;;;5031786;28;20449;-84
2022/01/29 00:02:49;;;;;;;43.67;25.02;;;7.40;99.90;;;;;;5031878;28;20132;-86
2022/01/29 00:05:15;;;;;;;45.78;24.63;;;7.40;99.90;;;;;;5030589;28;20045;-85
2022/01/29 00:07:42;;;;;;;46.10;25.42;;;7.30;99.90;;;;;;5031791;28;20053;-86
2022/01/29 00:10:11;;;;;;;47.83;25.83;;;7.30;99.90;;;;;;5031588;28;20503;-87
2022/01/29 00:12:36;;;;;;;45.88;26.63;;;7.40;99.90;;;;;;5030694;28;20053;-86
2022/01/29 00:15:02;;;;;;;49.35;26.67;;;7.30;99.90;;;;;;5030549;28;20046;-87
2022/01/29 00:17:28;;;;;;;40.78;22.67;;;7.30;99.90;;;;;;5014804;28;20061;-87
2022/01/29 00:19:54;;;;;;;50.58;28.23;;;7.30;99.90;;;;;;5031726;28;20387;-86
2022/01/29 00:22:19;;;;;;;51.95;27.20;;;7.30;99.90;;;;;;5031745;28;20045;-87
2022/01/29 00:24:45;;;;;;;51.15;27.75;;;7.30;99.90;;;;;;5030400;28;20494;-86
2022/01/29 00:27:11;;;;;;;46.38;26.13;;;7.20;99.90;;;;;;5030056;28;20049;-86
2022/01/29 00:29:41;;;;;;;46.70;26.25;;;7.40;99.90;;;;;;5030414;28;20045;-87
2022/01/29 00:32:07;;;;;;;52.80;28.50;;;7.30;99.90;;;;;;5014191;28;20057;-85
2022/01/29 00:34:39;;;;;;;54.40;29.77;;;6.20;99.90;;;;;;5031623;28;20060;-87
2022/01/29 00:37:05;;;;;;;56.88;30.27;;;7.40;99.90;;;;;;5013555;28;20402;-85
2022/01/29 00:39:31;;;;;;;57.40;30.83;;;7.30;99.90;;;;;;5013942;28;20041;-85
2022/01/29 00:41:57;;;;;;;49.03;26.98;;;7.20;99.90;;;;;;5029877;28;20049;-85
2022/01/29 00:44:22;;;;;;;52.22;28.20;;;7.30;99.90;;;;;;5031870;28;20042;-85
2022/01/29 00:46:49;;;;;;;64.38;36.53;;;7.80;99.90;;;;;;5031389;28;20053;-86
2022/01/29 00:49:15;;;;;;;68.45;38.17;;;7.20;99.90;;;;;;5031347;28;20083;-84
2022/01/29 00:51:41;;;;;;;65.90;33.80;;;7.10;99.90;;;;;;5013759;28;20053;-86
2022/01/29 00:54:07;;;;;;;60.55;32.00;;;7.20;99.90;;;;;;5031015;28;20041;-86
2022/01/29 00:56:32;;;;;;;79.43;39.85;;;7.20;99.90;;;;;;5052282;28;20041;-86
2022/01/29 00:58:58;;;;;;;70.93;36.17;;;7.00;99.90;;;;;;5031720;28;20583;-86
2022/01/29 01:01:24;;;;;;;74.28;40.70;;;7.10;99.90;;;;;;5029877;28;20057;-88
2022/01/29 01:03:50;;;;;;;61.17;34.28;;;7.00;99.90;;;;;;5030033;28;20418;-87
2022/01/29 01:06:15;;;;;;;68.78;35.70;;;7.00;99.90;;;;;;5029569;28;20050;-86
2022/01/29 01:08:41;;;;;;;71.97;39.47;;;7.00;99.90;;;;;;5031078;28;20446;-86
2022/01/29 01:11:06;;;;;;;70.72;39.72;;;7.10;99.90;;;;;;5029595;28;20046;-86
2022/01/29 01:13:32;;;;;;;78.07;42.63;;;7.10;99.90;;;;;;5031068;28;20110;-87
2022/01/29 01:15:58;;;;;;;77.47;40.70;;;7.00;99.90;;;;;;5029680;28;20048;-86
2022/01/29 01:18:24;;;;;;;84.03;41.47;;;7.00;99.90;;;;;;5030144;28;20405;-85
2022/01/29 01:20:50;;;;;;;84.70;40.60;;;6.90;99.90;;;;;;4997342;28;20045;-87
2022/01/29 01:23:15;;;;;;;83.55;42.15;;;7.00;99.90;;;;;;5029651;28;20406;-87
2022/01/29 01:25:41;;;;;;;69.35;37.55;;;7.80;99.90;;;;;;5035662;28;20057;-86
2022/01/29 01:28:07;;;;;;;79.45;42.42;;;7.20;99.90;;;;;;5036632;28;20077;-86
2022/01/29 01:30:33;;;;;;;81.45;41.45;;;7.10;99.90;;;;;;5037612;28;20037;-87
2022/01/29 01:33:01;;;;;;;84.53;43.30;;;7.00;99.90;;;;;;5036212;28;20092;-87
2022/01/29 01:35:35;;;;;;;86.82;42.60;;;7.00;99.90;;;;;;5005643;28;20495;-85
2022/01/29 01:40:38;;;;;;;78.82;40.35;;;7.10;99.90;;;;;;5018520;28;20064;-86
2022/01/29 01:43:04;;;;;;;79.65;41.03;;;7.10;99.90;;;;;;5034719;28;20470;-86
2022/01/29 01:45:29;;;;;;;74.38;39.67;;;7.20;99.90;;;;;;5034939;28;20081;-85
2022/01/29 01:47:59;;;;;;;62.35;32.40;;;7.20;99.90;;;;;;5017395;28;20045;-87
2022/01/29 01:50:24;;;;;;;75.07;38.28;;;7.20;99.90;;;;;;5035961;28;20072;-85
2022/01/29 01:52:50;;;;;;;72.60;38.58;;;7.30;99.90;;;;;;5001269;28;20566;-87
2022/01/29 01:55:16;;;;;;;76.18;40.45;;;7.30;99.90;;;;;;5033217;28;20041;-87
2022/01/29 01:57:42;;;;;;;76.32;40.10;;;7.30;99.90;;;;;;5033793;28;20124;-86
2022/01/29 02:00:08;;;;;;;68.97;33.25;;;7.30;99.90;;;;;;5016248;28;20061;-86
2022/01/29 02:02:34;;;;;;;68.85;35.13;;;7.30;99.90;;;;;;5016836;28;20483;-84
2022/01/29 02:04:59;;;;;;;74.35;38.15;;;7.30;99.90;;;;;;5033999;28;20071;-86
2022/01/29 02:07:25;;;;;;;60.47;31.92;;;7.50;99.90;;;;;;5032617;28;20060;-86
2022/01/29 02:09:51;;;;;;;85.65;39.50;;;7.60;99.90;;;;;;5033959;28;20111;-87
2022/01/29 02:12:16;;;;;;;79.72;38.58;;;7.50;99.90;;;;;;5032519;28;20042;-86
2022/01/29 02:14:45;;;;;;;70.22;36.72;;;7.50;99.90;;;;;;5033916;28;20044;-86
2022/01/29 02:17:10;;;;;;;80.25;40.78;;;7.40;99.90;;;;;;5032371;28;20402;-85
2022/01/29 02:19:36;;;;;;;81.88;40.95;;;7.70;99.90;;;;;;5033573;28;20053;-86
2022/01/29 02:22:02;;;;;;;67.28;34.22;;;7.60;99.90;;;;;;5032416;28;20128;-86
2022/01/29 02:24:27;;;;;;;81.50;36.80;;;7.50;99.90;;;;;;5031876;28;20057;-85
2022/01/29 02:26:53;;;;;;;72.38;34.67;;;7.80;99.90;;;;;;5033928;28;20096;-85
2022/01/29 02:29:20;;;;;;;84.53;38.78;;;7.50;99.90;;;;;;5032313;28;20041;-86
2022/01/29 02:31:55;;;;;;;79.07;36.67;;;7.50;99.90;;;;;;5033025;28;20085;-86
2022/01/29 02:34:21;;;;;;;86.70;38.78;;;7.50;99.90;;;;;;5015891;28;20380;-87
2022/01/29 02:36:47;;;;;;;68.40;32.20;;;7.50;99.90;;;;;;5015202;28;20061;-87
2022/01/29 02:39:13;;;;;;;79.13;37.40;;;7.50;99.90;;;;;;5015819;28;20112;-86
2022/01/29 02:41:42;;;;;;;64.70;31.20;;;7.50;99.90;;;;;;5016250;28;20092;-86
2022/01/29 02:44:14;;;;;;;84.75;37.45;;;7.60;99.90;;;;;;5016131;28;20472;-87
2022/01/29 02:46:49;;;;;;;70.32;33.47;;;7.60;99.90;;;;;;5033330;28;20059;-85
2022/01/29 02:49:19;;;;;;;71.40;33.88;;;7.60;99.90;;;;;;5016927;28;20053;-86
2022/01/29 02:51:50;;;;;;;82.63;37.28;;;7.50;99.90;;;;;;5032496;28;20050;-85
2022/01/29 02:54:17;;;;;;;75.60;38.10;;;7.60;99.90;;;;;;4999518;28;20045;-86
2022/01/29 02:56:42;;;;;;;80.93;37.33;;;7.60;99.90;;;;;;5033501;28;20459;-87
2022/01/29 02:59:08;;;;;;;88.55;36.40;;;7.70;99.90;;;;;;5032778;28;20061;-91
2022/01/29 03:01:34;;;;;;;69.72;35.63;;;7.60;99.90;;;;;;5053834;28;20077;-88
2022/01/29 03:04:00;;;;;;;65.32;29.65;;;7.70;99.90;;;;;;5017499;28;20060;-86
2022/01/29 03:06:27;;;;;;;71.22;33.65;;;7.90;99.90;;;;;;5033012;28;20052;-86
2022/01/29 03:08:53;;;;;;;72.53;31.35;;;7.80;99.90;;;;;;5033201;28;20057;-88
2022/01/29 03:11:22;;;;;;;64.13;29.52;;;7.90;99.90;;;;;;5031643;28;20085;-87
2022/01/29 03:13:48;;;;;;;66.63;31.35;;;7.90;99.90;;;;;;5015666;28;20131;-86
2022/01/29 03:16:14;;;;;;;57.00;26.35;;;8.00;99.90;;;;;;5014881;28;20414;-86
2022/01/29 03:18:40;;;;;;;65.32;30.40;;;8.00;99.90;;;;;;5015511;28;20072;-86
2022/01/29 03:21:05;;;;;;;60.92;31.02;;;8.00;99.90;;;;;;4999126;28;20053;-85
2022/01/29 03:23:31;;;;;;;71.05;31.13;;;8.00;99.90;;;;;;5032514;28;20581;-86
2022/01/29 03:25:56;;;;;;;54.15;24.90;;;8.00;99.90;;;;;;5032794;28;20509;-87
2022/01/29 03:28:22;;;;;;;59.15;27.05;;;8.00;99.90;;;;;;5031213;28;20045;-87
2022/01/29 03:30:48;;;;;;;54.72;28.35;;;8.10;99.90;;;;;;5032318;28;20107;-86
2022/01/29 03:33:13;;;;;;;61.78;29.23;;;8.00;99.90;;;;;;5032377;28;20049;-87
2022/01/29 03:35:39;;;;;;;54.58;29.90;;;8.20;99.90;;;;;;5032406;28;20041;-87
2022/01/29 03:38:05;;;;;;;50.40;25.02;;;8.10;99.90;;;;;;5031283;28;20053;-85
2022/01/29 03:40:32;;;;;;;61.30;28.77;;;8.00;99.90;;;;;;5014447;28;20403;-86
2022/01/29 03:43:04;;;;;;;56.30;26.77;;;8.00;99.90;;;;;;5030798;28;20072;-85
2022/01/29 03:45:30;;;;;;;56.50;28.17;;;8.10;99.90;;;;;;5015222;28;20054;-87
2022/01/29 03:47:56;;;;;;;49.53;26.92;;;8.20;99.90;;;;;;5030689;28;20076;-86
2022/01/29 03:50:21;;;;;;;56.85;27.50;;;8.20;99.90;;;;;;5032130;28;20061;-86
2022/01/29 03:52:47;;;;;;;56.33;28.80;;;8.20;99.90;;;;;;5032230;28;20042;-85
2022/01/29 03:55:13;;;;;;;49.65;28.80;;;8.10;99.90;;;;;;5032038;28;20081;-86
2022/01/29 03:57:38;;;;;;;53.80;27.65;;;8.20;99.90;;;;;;5030809;28;20053;-86
2022/01/29 04:00:05;;;;;;;54.30;28.33;;;8.30;99.90;;;;;;5030677;28;20061;-85
2022/01/29 04:02:31;;;;;;;60.35;29.23;;;8.20;99.90;;;;;;5030318;28;20516;-86
2022/01/29 04:04:56;;;;;;;58.92;26.83;;;8.10;99.90;;;;;;5032051;28;20042;-86
2022/01/29 04:07:23;;;;;;;56.88;28.98;;;8.20;99.90;;;;;;5030324;28;20041;-85
2022/01/29 04:09:50;;;;;;;58.63;29.25;;;8.20;99.90;;;;;;5031890;28;20057;-86
2022/01/29 04:12:16;;;;;;;46.53;28.42;;;8.20;99.90;;;;;;5031773;28;20172;-86
2022/01/29 04:14:42;;;;;;;50.05;25.95;;;8.20;99.90;;;;;;5030530;28;20124;-86
2022/01/29 04:17:10;;;;;;;50.13;26.20;;;8.20;99.90;;;;;;5013989;28;20053;-87
2022/01/29 04:19:36;;;;;;;54.92;28.20;;;8.30;99.90;;;;;;5014310;28;20521;-87
2022/01/29 04:22:05;;;;;;;45.58;23.42;;;8.50;99.90;;;;;;5032095;28;20046;-87
2022/01/29 04:24:31;;;;;;;49.50;27.73;;;8.40;99.90;;;;;;5013642;28;20049;-87
2022/01/29 04:26:57;;;;;;;64.05;30.38;;;8.30;99.90;;;;;;5013918;28;20049;-86
2022/01/29 04:29:22;;;;;;;49.13;26.08;;;8.30;99.90;;;;;;4997502;28;20067;-85
2022/01/29 04:34:20;;;;;;;58.38;28.02;;;8.30;99.90;;;;;;5030294;28;20050;-87
2022/01/29 04:36:45;;;;;;;45.75;26.10;;;8.30;99.90;;;;;;5014205;28;20068;-87
2022/01/29 04:39:11;;;;;;;48.53;25.48;;;8.40;99.90;;;;;;5030399;28;20076;-88
2022/01/29 04:41:37;;;;;;;45.78;23.25;;;8.40;99.90;;;;;;5029752;28;20045;-87
2022/01/29 04:44:03;;;;;;;46.65;26.15;;;8.40;99.90;;;;;;5029793;28;20053;-88
2022/01/29 04:46:28;;;;;;;47.28;23.70;;;8.40;99.90;;;;;;5030027;28;20402;-87
2022/01/29 04:48:54;;;;;;;52.20;26.95;;;8.50;99.90;;;;;;5031607;28;20095;-86
2022/01/29 04:51:20;;;;;;;43.28;24.17;;;8.50;99.90;;;;;;5031452;28;20522;-86
2022/01/29 04:53:46;;;;;;;46.35;25.80;;;8.40;99.90;;;;;;5013898;28;20447;-87
2022/01/29 04:56:12;;;;;;;50.35;26.38;;;8.40;99.90;;;;;;5030375;28;20056;-87
2022/01/29 04:58:38;;;;;;;45.40;25.45;;;8.40;99.90;;;;;;5013230;28;20046;-87
2022/01/29 05:01:04;;;;;;;52.83;26.30;;;8.50;99.90;;;;;;5030780;28;20498;-87
2022/01/29 05:03:30;;;;;;;41.85;22.08;;;8.50;99.90;;;;;;5029954;28;20502;-87
2022/01/29 05:05:55;;;;;;;44.92;26.25;;;8.50;99.90;;;;;;5052571;28;20041;-87
2022/01/29 05:08:21;;;;;;;43.13;25.25;;;8.40;99.90;;;;;;5018720;28;20061;-88
2022/01/29 05:10:47;;;;;;;37.38;17.77;;;8.50;99.90;;;;;;5029739;28;20084;-87
2022/01/29 05:13:17;;;;;;;43.17;24.35;;;8.60;99.90;;;;;;5031041;28;20049;-87
2022/01/29 05:15:58;;;;;;;37.47;21.67;;;8.50;99.90;;;;;;5029886;28;20061;-86
2022/01/29 05:26:51;;;;;;;36.78;22.17;;;8.50;99.90;;;;;;5029374;28;20057;-86
2022/01/29 05:29:17;;;;;;;37.88;20.77;;;8.50;99.90;;;;;;5029771;28;20045;-87
2022/01/29 05:31:43;;;;;;;34.67;19.95;;;8.50;99.90;;;;;;5030715;28;20052;-86
2022/01/29 05:34:09;;;;;;;32.60;20.42;;;8.70;99.90;;;;;;5029357;28;20101;-87
2022/01/29 05:36:34;;;;;;;35.78;22.38;;;8.60;99.90;;;;;;5029348;28;20045;-86
2022/01/29 05:39:00;;;;;;;44.92;22.23;;;8.50;99.90;;;;;;5031025;28;20399;-86
2022/01/29 05:41:28;;;;;;;44.45;23.02;;;8.60;99.90;;;;;;5029610;28;20056;-86
2022/01/29 05:43:53;;;;;;;40.05;20.38;;;8.60;99.90;;;;;;5030793;28;20081;-87
2022/01/29 05:46:19;;;;;;;38.38;22.45;;;8.60;99.90;;;;;;5029960;28;20050;-87
2022/01/29 05:48:45;;;;;;;42.92;22.80;;;8.60;99.90;;;;;;5029308;28;20046;-86
2022/01/29 05:51:11;;;;;;;38.55;21.38;;;8.60;99.90;;;;;;5030964;28;20045;-86
2022/01/29 05:53:36;;;;;;;35.95;21.67;;;8.70;99.90;;;;;;5012991;28;20128;-87
2022/01/29 05:56:02;;;;;;;38.25;21.02;;;8.80;99.90;;;;;;5013162;28;20454;-86
2022/01/29 05:58:28;;;;;;;36.15;20.55;;;8.70;99.90;;;;;;5013135;28;20049;-87
2022/01/29 06:00:53;;;;;;;31.33;17.80;;;8.70;99.90;;;;;;5029966;28;20156;-87
2022/01/29 06:03:19;;;;;;;37.53;20.58;;;8.70;99.90;;;;;;5029229;28;20049;-86
2022/01/29 06:05:45;;;;;;;39.13;21.50;;;8.80;99.90;;;;;;5028924;28;20520;-86
2022/01/29 06:08:10;;;;;;;37.30;20.92;;;8.70;99.90;;;;;;5030541;28;20132;-85
2022/01/29 06:10:36;;;;;;;33.67;19.42;;;8.80;99.90;;;;;;5012523;28;20053;-86
2022/01/29 06:13:02;;;;;;;34.53;15.68;;;8.90;99.90;;;;;;5032436;28;20049;-86
2022/01/29 06:15:27;;;;;;;34.53;17.92;;;8.90;99.90;;;;;;5032923;28;20057;-85
2022/01/29 06:17:53;;;;;;;38.85;20.10;;;8.90;99.90;;;;;;5033873;28;20089;-86
2022/01/29 06:20:19;;;;;;;33.05;18.83;;;8.90;99.90;;;;;;5016224;28;20461;-85
2022/01/29 06:22:45;;;;;;;26.27;14.60;;;8.90;99.90;;;;;;5032238;28;20041;-86
2022/01/29 06:25:11;;;;;;;34.97;18.50;;;9.00;99.90;;;;;;5016217;28;20045;-86
2022/01/29 06:27:36;;;;;;;35.65;18.65;;;9.00;99.90;;;;;;5046204;28;20510;-89
2022/01/29 06:30:02;;;;;;;33.30;19.15;;;9.00;99.90;;;;;;5044442;28;20048;-83
2022/01/29 06:32:28;;;;;;;32.10;18.92;;;8.90;99.90;;;;;;5032394;28;20503;-85
2022/01/29 06:34:55;;;;;;;28.45;16.55;;;8.80;99.90;;;;;;5032371;28;20053;-86
2022/01/29 06:37:21;;;;;;;25.85;15.50;;;8.90;99.90;;;;;;5016545;28;20179;-86
2022/01/29 06:39:47;;;;;;;33.22;18.30;;;9.00;99.90;;;;;;5016033;28;20128;-85
2022/01/29 06:42:12;;;;;;;32.28;18.85;;;8.90;99.90;;;;;;4999599;28;20061;-86
2022/01/29 06:44:38;;;;;;;29.42;17.30;;;8.90;99.90;;;;;;5033200;28;20049;-87
2022/01/29 06:47:04;;;;;;;26.58;16.05;;;8.90;99.90;;;;;;5033376;28;20045;-87
2022/01/29 06:49:31;;;;;;;30.48;17.40;;;9.00;99.90;;;;;;5032420;28;20056;-86
2022/01/29 06:51:56;;;;;;;24.73;15.18;;;9.00;99.90;;;;;;5033092;28;20122;-86
2022/01/29 06:54:22;;;;;;;27.90;17.13;;;9.00;99.90;;;;;;5033556;28;20042;-87
2022/01/29 06:56:48;;;;;;;27.55;17.05;;;8.90;99.90;;;;;;5031578;28;20406;-85
2022/01/29 06:59:13;;;;;;;25.50;16.88;;;9.00;99.90;;;;;;5015650;28;20049;-86
2022/01/29 07:01:39;;;;;;;24.17;16.55;;;9.10;99.90;;;;;;5032782;28;20057;-86
2022/01/29 07:04:05;;;;;;;25.67;16.08;;;9.10;99.90;;;;;;5031853;28;20136;-87
2022/01/29 07:06:30;;;;;;;25.27;15.80;;;9.10;99.90;;;;;;5033300;28;20050;-86
2022/01/29 07:08:58;;;;;;;25.88;14.98;;;9.10;99.90;;;;;;5031547;28;20048;-86
2022/01/29 07:11:24;;;;;;;25.40;13.40;;;9.00;99.90;;;;;;5033127;28;20084;-84
2022/01/29 07:14:00;;;;;;;27.23;16.20;;;9.10;99.90;;;;;;5032730;28;20131;-87
2022/01/29 07:16:26;;;;;;;28.10;15.48;;;9.00;99.90;;;;;;5016877;28;20086;-87
2022/01/29 07:18:52;;;;;;;30.77;15.68;;;9.00;99.90;;;;;;5031214;28;20096;-86
2022/01/29 07:21:17;;;;;;;23.52;13.23;;;9.10;99.90;;;;;;5033012;28;20060;-85
2022/01/29 07:23:43;;;;;;;24.73;14.55;;;9.20;99.90;;;;;;5032171;28;20048;-86
2022/01/29 07:26:08;;;;;;;25.80;14.80;;;9.10;99.90;;;;;;5031359;28;20102;-85
2022/01/29 07:28:34;;;;;;;19.88;11.95;;;9.10;99.90;;;;;;5032587;28;20080;-85
2022/01/29 07:31:00;;;;;;;24.27;14.60;;;9.10;99.90;;;;;;5030805;28;20056;-85
2022/01/29 07:33:25;;;;;;;27.73;12.80;;;9.10;99.90;;;;;;5014784;28;20487;-86
2022/01/29 07:35:51;;;;;;;22.77;13.85;;;9.10;99.90;;;;;;5031885;28;20049;-87
2022/01/29 07:38:17;;;;;;;29.27;14.43;;;9.20;99.90;;;;;;5032397;28;20046;-86
2022/01/29 07:40:42;;;;;;;22.55;13.25;;;9.10;99.90;;;;;;5031894;28;20041;-86
2022/01/29 07:43:08;;;;;;;26.38;15.07;;;9.10;99.90;;;;;;5031115;28;20053;-85
2022/01/29 07:45:33;;;;;;;24.85;13.27;;;9.10;99.90;;;;;;5030679;28;20063;-86
2022/01/29 07:47:59;;;;;;;25.70;14.38;;;9.10;99.90;;;;;;5031965;28;20052;-84
2022/01/29 07:50:25;;;;;;;23.60;15.25;;;9.10;99.90;;;;;;5032245;28;20064;-85
2022/01/29 07:52:50;;;;;;;24.83;15.18;;;9.00;99.90;;;;;;5031736;28;20051;-85
2022/01/29 07:55:16;;;;;;;28.05;16.17;;;9.00;99.90;;;;;;5032302;28;20080;-86
2022/01/29 07:57:42;;;;;;;27.45;15.95;;;8.90;99.90;;;;;;5031057;28;20491;-87
2022/01/29 08:00:08;;;;;;;31.98;17.98;;;8.90;99.90;;;;;;5031053;28;20509;-84
2022/01/29 08:02:33;;;;;;;28.50;15.55;;;8.80;99.90;;;;;;5030751;28;20053;-86
2022/01/29 08:04:59;;;;;;;34.75;19.95;;;8.90;99.90;;;;;;5031840;28;20041;-85
2022/01/29 08:07:25;;;;;;;37.13;21.92;;;8.90;99.90;;;;;;5030968;28;20041;-84
2022/01/29 08:09:50;;;;;;;31.17;18.52;;;8.80;99.90;;;;;;5031911;28;20528;-85
2022/01/29 08:12:16;;;;;;;32.95;19.73;;;8.80;99.90;;;;;;5031960;28;20184;-84
2022/01/29 08:14:42;;;;;;;34.53;20.75;;;8.80;99.90;;;;;;5031942;28;20046;-86
2022/01/29 08:17:08;;;;;;;36.47;21.20;;;8.90;99.90;;;;;;5031626;28;20438;-86
2022/01/29 08:19:33;;;;;;;30.15;19.17;;;8.90;99.90;;;;;;5014415;28;20053;-85
2022/01/29 08:21:59;;;;;;;33.10;19.75;;;8.90;99.90;;;;;;5031550;28;20072;-86
2022/01/29 08:24:24;;;;;;;32.05;19.23;;;8.90;99.90;;;;;;5031321;28;20132;-86
2022/01/29 08:26:50;;;;;;;25.88;18.77;;;9.00;99.90;;;;;;5030023;28;20153;-86
2022/01/29 08:29:16;;;;;;;35.25;18.08;;;9.00;99.90;;;;;;5031306;28;20067;-86
2022/01/29 08:31:41;;;;;;;31.90;17.38;;;9.00;99.90;;;;;;5037258;28;20051;-86
2022/01/29 08:34:07;;;;;;;29.45;18.23;;;9.10;99.90;;;;;;5045362;28;20832;-86
2022/01/29 08:36:33;;;;;;;19.58;12.95;;;9.10;99.90;;;;;;5030119;28;20403;-89
2022/01/29 08:38:59;;;;;;;28.00;16.10;;;9.20;99.90;;;;;;5030046;28;20115;-86
2022/01/29 08:41:24;;;;;;;30.70;14.88;;;9.20;99.90;;;;;;5029965;28;20049;-86
2022/01/29 08:43:50;;;;;;;21.88;13.35;;;9.20;99.90;;;;;;5030969;28;20045;-90
2022/01/29 08:46:16;;;;;;;24.58;15.43;;;9.20;99.90;;;;;;5031899;28;20044;-85
2022/01/29 08:48:42;;;;;;;25.95;15.13;;;9.20;99.90;;;;;;5031511;28;20548;-85
2022/01/29 08:51:07;;;;;;;23.90;13.65;;;9.20;99.90;;;;;;5014288;28;20046;-85
2022/01/29 08:53:34;;;;;;;19.33;12.50;;;9.20;99.90;;;;;;5014315;28;20056;-86
2022/01/29 08:56:00;;;;;;;20.90;13.68;;;9.40;99.90;;;;;;5014426;28;20095;-85
2022/01/29 08:58:26;;;;;;;19.38;12.00;;;9.40;99.90;;;;;;5031537;28;20128;-87
2022/01/29 09:00:51;;;;;;;18.35;11.82;;;9.40;99.90;;;;;;5030742;28;20473;-89
2022/01/29 09:03:18;;;;;;;15.80;10.52;;;9.40;99.90;;;;;;5032534;28;20060;-83
2022/01/29 09:05:44;;;;;;;16.90;11.20;;;9.50;99.90;;;;;;5032582;28;20191;-86
2022/01/29 09:08:10;;;;;;;18.77;10.35;;;9.40;99.90;;;;;;5014745;28;20053;-84
2022/01/29 09:10:37;;;;;;;16.30;10.65;;;9.50;99.90;;;;;;5031361;28;20042;-85
2022/01/29 09:13:02;;;;;;;16.88;8.20;;;9.60;99.90;;;;;;5030612;28;20418;-85
2022/01/29 09:15:28;;;;;;;16.08;8.30;;;9.70;99.90;;;;;;5014854;28;20055;-84
2022/01/29 09:17:54;;;;;;;12.57;7.53;;;9.80;99.90;;;;;;5014904;28;20105;-88
2022/01/29 09:20:19;;;;;;;12.98;7.35;;;9.80;99.90;;;;;;5014466;28;20042;-83
2022/01/29 09:22:45;;;;;;;14.95;8.23;;;9.70;99.90;;;;;;5031013;28;20060;-85
2022/01/29 09:25:11;;;;;;;15.98;8.57;;;9.80;99.90;;;;;;5030666;28;20042;-85
2022/01/29 09:27:39;;;;;;;14.18;6.75;;;9.60;99.90;;;;;;5030563;28;20052;-84
2022/01/29 09:30:06;;;;;;;14.32;6.35;;;9.80;99.90;;;;;;5030237;28;20053;-85
2022/01/29 09:32:31;;;;;;;11.82;7.18;;;9.80;99.90;;;;;;5013366;28;20084;-84
2022/01/29 09:34:57;;;;;;;14.48;7.50;;;9.80;99.90;;;;;;5031670;28;20069;-91
2022/01/29 09:37:23;;;;;;;16.25;8.38;;;9.80;99.90;;;;;;5031870;28;20041;-87
2022/01/29 09:39:48;;;;;;;17.70;9.00;;;9.80;99.90;;;;;;5030055;28;20115;-86
2022/01/29 09:42:17;;;;;;;17.70;7.72;;;9.80;99.90;;;;;;5030867;28;20072;-84
2022/01/29 09:44:43;;;;;;;17.23;7.32;;;9.80;99.90;;;;;;5030127;28;20076;-85
2022/01/29 09:47:08;;;;;;;18.08;7.75;;;9.80;99.90;;;;;;5032365;28;20045;-85
2022/01/29 09:49:34;;;;;;;13.63;7.47;;;9.90;99.90;;;;;;5017230;28;20128;-85
2022/01/29 09:52:01;;;;;;;11.55;7.18;;;9.90;99.90;;;;;;5017586;28;20042;-86
2022/01/29 09:54:27;;;;;;;16.00;7.95;;;9.90;99.90;;;;;;5033981;28;20590;-86
2022/01/29 09:56:52;;;;;;;12.23;6.95;;;9.90;99.90;;;;;;5031778;28;20092;-85
2022/01/29 09:59:18;;;;;;;13.85;7.47;;;9.90;99.90;;;;;;5033843;28;20629;-86
2022/01/29 10:01:44;;;;;;;12.00;7.82;;;9.90;99.90;;;;;;5032516;28;20057;-85
2022/01/29 10:04:09;;;;;;;10.85;6.32;;;9.90;99.90;;;;;;5032105;28;20044;-85
2022/01/29 10:06:36;;;;;;;10.57;7.00;;;10.10;99.90;;;;;;5033185;28;20175;-83
2022/01/29 10:09:06;;;;;;;14.70;7.65;;;10.10;99.90;;;;;;5033974;28;20103;-85
2022/01/29 10:11:32;;;;;;;14.05;6.95;;;10.00;99.90;;;;;;5032935;28;20049;-84
2022/01/29 10:13:59;;;;;;;12.68;6.93;;;10.00;99.90;;;;;;5034338;28;20122;-85
2022/01/29 10:16:26;;;;;;;11.88;5.63;;;10.00;99.90;;;;;;5016344;28;20108;-86
2022/01/29 10:19:06;;;;;;;14.88;5.57;;;10.00;99.90;;;;;;5033412;28;20089;-84
2022/01/29 10:21:33;;;;;;;9.45;5.63;;;10.10;99.90;;;;;;5017073;28;20391;-85
2022/01/29 10:24:02;;;;;;;12.93;5.60;;;10.20;99.90;;;;;;5000310;28;20136;-86
2022/01/29 10:26:39;;;;;;;9.00;5.70;;;10.20;99.90;;;;;;5016966;28;20129;-83
2022/01/29 10:29:07;;;;;;;11.35;5.82;;;10.20;99.90;;;;;;5033424;28;20079;-88
2022/01/29 10:31:43;;;;;;;13.20;5.65;;;10.30;99.90;;;;;;5016226;28;20149;-86
2022/01/29 10:34:26;;;;;;;13.13;5.50;;;10.20;99.90;;;;;;5032441;28;20056;-85
2022/01/29 10:37:11;;;;;;;11.93;6.05;;;10.30;99.90;;;;;;5027299;28;20080;-87
2022/01/29 10:39:36;;;;;;;10.55;6.07;;;10.30;99.90;;;;;;5049740;28;20041;-86
2022/01/29 10:42:23;;;;;;;10.95;5.57;;;10.40;99.90;;;;;;5016002;28;20064;-86
2022/01/29 10:44:51;;;;;;;12.88;5.57;;;10.30;99.90;;;;;;4999639;28;20391;-87
2022/01/29 10:47:16;;;;;;;16.50;5.60;;;10.30;99.90;;;;;;4999733;28;20041;-86
2022/01/29 10:49:57;;;;;;;11.90;4.75;;;10.30;99.90;;;;;;5032515;28;20119;-87
2022/01/29 10:52:33;;;;;;;8.88;5.07;;;10.40;99.90;;;;;;5015615;28;20041;-86
2022/01/29 10:55:06;;;;;;;10.25;4.50;;;10.30;99.90;;;;;;5032545;28;20041;-87
2022/01/29 10:57:39;;;;;;;12.43;5.38;;;10.50;99.90;;;;;;5016095;28;20053;-88
2022/01/29 11:00:18;;;;;;;18.45;4.90;;;10.50;99.90;;;;;;5036423;28;20414;-88
2022/01/29 11:02:45;;;;;;;9.60;4.05;;;10.40;99.90;;;;;;5002466;28;20064;-88
2022/01/29 11:05:11;;;;;;;11.93;4.20;;;10.70;99.90;;;;;;5034771;28;20045;-87
2022/01/29 11:07:37;;;;;;;12.55;4.22;;;10.50;99.90;;;;;;5035384;28;20399;-85
2022/01/29 11:10:09;;;;;;;9.90;3.60;;;10.60;99.90;;;;;;5032718;28;20491;-88
2022/01/29 11:12:36;;;;;;;11.98;3.80;;;10.60;99.90;;;;;;5000762;28;20174;-83
2022/01/29 11:15:02;;;;;;;5.28;4.03;;;10.60;99.90;;;;;;5032679;28;20111;-84
2022/01/29 11:17:29;;;;;;;12.57;3.95;;;10.50;99.90;;;;;;5032883;28;20403;-85
2022/01/29 11:19:55;;;;;;;7.88;3.28;;;10.50;99.90;;;;;;5015746;28;20096;-84
2022/01/29 11:22:26;;;;;;;8.27;3.00;;;10.60;99.90;;;;;;5030911;28;20085;-85
2022/01/29 11:25:03;;;;;;;9.30;3.25;;;10.50;99.90;;;;;;5032907;28;20398;-84
2022/01/29 11:27:30;;;;;;;10.80;3.92;;;10.60;99.90;;;;;;5031017;28;20057;-84
2022/01/29 11:30:08;;;;;;;12.65;3.53;;;10.50;99.90;;;;;;5031457;28;20569;-86
2022/01/29 11:32:42;;;;;;;10.05;3.42;;;10.50;99.90;;;;;;5031564;28;20053;-85
2022/01/29 11:35:17;;;;;;;10.02;2.90;;;10.70;99.90;;;;;;5015637;28;20047;-85
2022/01/29 11:37:49;;;;;;;11.07;3.45;;;10.60;99.90;;;;;;5015795;28;20049;-86
2022/01/29 11:40:24;;;;;;;7.40;3.58;;;10.50;99.90;;;;;;5031177;28;20088;-85
2022/01/29 11:43:14;;;;;;;8.07;3.20;;;10.60;99.90;;;;;;5031970;28;20045;-87
2022/01/29 11:46:05;;;;;;;8.35;3.10;;;10.60;99.90;;;;;;5030288;28;20533;-85
2022/01/29 11:51:47;;;;;;;8.48;3.08;;;10.80;99.90;;;;;;5020559;28;20061;-85
2022/01/29 11:54:17;;;;;;;9.27;3.60;;;10.80;99.90;;;;;;5029121;28;20060;-87
2022/01/29 11:56:44;;;;;;;10.98;2.83;;;10.60;99.90;;;;;;5030605;28;20060;-87
2022/01/29 11:59:27;;;;;;;8.38;2.83;;;10.70;99.90;;;;;;5014631;28;20089;-86
2022/01/29 12:02:01;;;;;;;11.53;3.00;;;10.80;99.90;;;;;;5031052;28;20140;-86
2022/01/29 12:05:04;;;;;;;9.70;2.85;;;10.70;99.90;;;;;;5030586;28;20398;-85
2022/01/29 12:07:34;;;;;;;9.95;2.80;;;10.80;99.90;;;;;;5030779;28;20175;-88
2022/01/29 12:10:05;;;;;;;10.43;3.00;;;10.90;99.90;;;;;;5031625;28;20080;-83
2022/01/29 12:12:32;;;;;;;8.55;2.53;;;11.00;99.90;;;;;;5031829;28;20056;-85
2022/01/29 12:15:10;;;;;;;8.52;2.75;;;11.10;99.90;;;;;;5031233;28;20120;-86
2022/01/29 12:17:41;;;;;;;6.63;2.55;;;11.00;99.90;;;;;;5016706;28;20114;-84
2022/01/29 12:20:07;;;;;;;11.00;3.03;;;11.10;99.90;;;;;;5031329;28;20045;-86
2022/01/29 12:22:37;;;;;;;8.25;2.10;;;11.10;99.90;;;;;;5030650;28;20046;-85
2022/01/29 12:25:11;;;;;;;10.15;2.85;;;11.00;99.90;;;;;;5029875;28;20064;-85
2022/01/29 12:27:47;;;;;;;8.13;2.97;;;11.00;99.90;;;;;;5013995;28;20075;-87
2022/01/29 12:30:21;;;;;;;12.07;2.90;;;11.00;99.90;;;;;;5013879;28;20494;-87
2022/01/29 12:33:06;;;;;;;8.65;2.42;;;11.10;99.90;;;;;;5029917;28;20064;-85
2022/01/29 12:35:34;;;;;;;10.63;2.67;;;11.10;99.90;;;;;;5029197;28;20385;-84
2022/01/29 12:37:59;;;;;;;8.43;2.33;;;11.30;99.90;;;;;;5029611;28;20067;-85
2022/01/29 12:40:26;;;;;;;10.07;2.10;;;11.40;99.90;;;;;;5029447;28;20120;-85
2022/01/29 12:43:00;;;;;;;9.82;2.67;;;11.30;99.90;;;;;;5033825;28;20045;-83
2022/01/29 12:45:31;;;;;;;8.07;1.85;;;11.30;99.90;;;;;;5017621;28;20488;-84
2022/01/29 12:48:10;;;;;;;10.50;2.15;;;11.30;99.90;;;;;;4996951;28;20053;-86
2022/01/29 12:50:37;;;;;;;13.52;2.33;;;11.30;99.90;;;;;;5013412;28;20045;-84
2022/01/29 12:53:09;;;;;;;7.25;2.47;;;11.40;99.90;;;;;;5033289;28;20049;-84
2022/01/29 12:55:35;;;;;;;9.52;2.40;;;11.30;99.90;;;;;;5019210;28;20487;-84